sensor_id;sensor_type;location;lat;lon;timestamp;pressure;altitude;pressure_sealevel;temperature;humidity
66762;BME280;53672;48.176;16.338;2023-03-14T00:03:47;97460.53;;;8.55;66.79
66762;BME280;53672;48.176;16.338;2023-03-14T00:08:48;97450.97;;;8.71;66.07
66762;BME280;53672;48.176;16.338;2023-03-14T00:13:50;97446.25;;;8.46;66.97
66762;BME280;53672;48.176;16.338;2023-03-14T00:18:51;97444.34;;;8.24;67.88
66762;BME280;53672;48.176;16.338;2023-03-14T00:23:52;97434.78;;;8.09;68.15
66762;BME280;53672;48.176;16.338;2023-03-14T00:28:55;97421.75;;;8.39;68.00
66762;BME280;53672;48.176;16.338;2023-03-14T00:33:56;97421.38;;;8.32;68.27
66762;BME280;53672;48.176;16.338;2023-03-14T00:38:56;97418.91;;;8.44;67.92
66762;BME280;53672;48.176;16.338;2023-03-14T00:43:58;97407.91;;;8.54;67.61
66762;BME280;53672;48.176;16.338;2023-03-14T00:48:59;97408.41;;;8.56;67.54
66762;BME280;53672;48.176;16.338;2023-03-14T00:53:59;97399.16;;;8.40;67.96
66762;BME280;53672;48.176;16.338;2023-03-14T00:59:01;97390.75;;;8.33;68.22
66762;BME280;53672;48.176;16.338;2023-03-14T01:04:02;97373.91;;;8.18;69.08
66762;BME280;53672;48.176;16.338;2023-03-14T01:09:03;97364.13;;;7.92;69.69
66762;BME280;53672;48.176;16.338;2023-03-14T01:14:05;97352.53;;;7.60;70.95
66762;BME280;53672;48.176;16.338;2023-03-14T01:19:05;97350.09;;;7.28;72.27
66762;BME280;53672;48.176;16.338;2023-03-14T01:24:06;97341.81;;;7.02;73.22
66762;BME280;53672;48.176;16.338;2023-03-14T01:29:08;97333.13;;;6.83;75.04
66762;BME280;53672;48.176;16.338;2023-03-14T01:34:09;97334.56;;;6.67;75.85
66762;BME280;53672;48.176;16.338;2023-03-14T01:39:09;97329.81;;;6.50;76.98
66762;BME280;53672;48.176;16.338;2023-03-14T01:44:12;97330.56;;;6.37;77.78
66762;BME280;53672;48.176;16.338;2023-03-14T01:49:21;97327.91;;;6.24;79.07
66762;BME280;53672;48.176;16.338;2023-03-14T01:54:25;97336.41;;;6.12;79.19
66762;BME280;53672;48.176;16.338;2023-03-14T01:59:30;97337.00;;;5.95;79.78
66762;BME280;53672;48.176;16.338;2023-03-14T02:04:34;97338.50;;;5.83;80.35
66762;BME280;53672;48.176;16.338;2023-03-14T02:09:35;97331.16;;;5.75;80.84
66762;BME280;53672;48.176;16.338;2023-03-14T02:14:38;97335.19;;;5.72;80.93
66762;BME280;53672;48.176;16.338;2023-03-14T02:19:50;97338.97;;;5.71;81.38
66762;BME280;53672;48.176;16.338;2023-03-14T02:25:02;97337.53;;;5.79;81.77
66762;BME280;53672;48.176;16.338;2023-03-14T02:30:08;97336.13;;;5.81;81.90
66762;BME280;53672;48.176;16.338;2023-03-14T02:35:12;97354.25;;;5.84;80.74
66762;BME280;53672;48.176;16.338;2023-03-14T02:40:14;97366.41;;;5.95;81.13
66762;BME280;53672;48.176;16.338;2023-03-14T02:45:39;97379.06;;;6.03;80.08
66762;BME280;53672;48.176;16.338;2023-03-14T02:50:41;97382.88;;;6.02;79.93
66762;BME280;53672;48.176;16.338;2023-03-14T02:55:45;97389.88;;;5.98;79.90
66762;BME280;53672;48.176;16.338;2023-03-14T03:00:47;97407.00;;;5.97;78.92
66762;BME280;53672;48.176;16.338;2023-03-14T03:05:48;97420.47;;;5.92;80.65
66762;BME280;53672;48.176;16.338;2023-03-14T03:10:50;97444.06;;;6.04;79.94
66762;BME280;53672;48.176;16.338;2023-03-14T03:15:52;97434.56;;;6.11;79.56
66762;BME280;53672;48.176;16.338;2023-03-14T03:20:53;97453.88;;;6.08;79.62
66762;BME280;53672;48.176;16.338;2023-03-14T03:25:53;97464.06;;;6.06;79.36
66762;BME280;53672;48.176;16.338;2023-03-14T03:30:55;97480.56;;;5.95;79.43
66762;BME280;53672;48.176;16.338;2023-03-14T03:35:56;97482.03;;;5.87;80.50
66762;BME280;53672;48.176;16.338;2023-03-14T03:40:56;97479.38;;;5.82;80.27
66762;BME280;53672;48.176;16.338;2023-03-14T03:45:58;97465.41;;;5.90;80.33
66762;BME280;53672;48.176;16.338;2023-03-14T03:51:02;97472.44;;;6.19;78.90
66762;BME280;53672;48.176;16.338;2023-03-14T03:56:03;97472.66;;;6.22;77.97
66762;BME280;53672;48.176;16.338;2023-03-14T04:01:06;97473.81;;;6.16;77.60
66762;BME280;53672;48.176;16.338;2023-03-14T04:06:08;97450.03;;;6.15;77.47
66762;BME280;53672;48.176;16.338;2023-03-14T04:11:09;97444.47;;;6.11;77.33
66762;BME280;53672;48.176;16.338;2023-03-14T04:16:15;97451.69;;;6.10;76.97
66762;BME280;53672;48.176;16.338;2023-03-14T04:21:16;97458.34;;;6.13;77.24
66762;BME280;53672;48.176;16.338;2023-03-14T04:26:17;97470.84;;;6.18;77.16
66762;BME280;53672;48.176;16.338;2023-03-14T04:31:20;97477.19;;;6.22;76.44
66762;BME280;53672;48.176;16.338;2023-03-14T04:36:21;97475.66;;;6.34;76.14
66762;BME280;53672;48.176;16.338;2023-03-14T04:41:22;97501.09;;;6.64;74.05
66762;BME280;53672;48.176;16.338;2023-03-14T04:46:23;97492.19;;;6.82;73.48
66762;BME280;53672;48.176;16.338;2023-03-14T04:51:24;97455.31;;;6.93;73.27
66762;BME280;53672;48.176;16.338;2023-03-14T04:56:25;97466.91;;;7.29;72.60
66762;BME280;53672;48.176;16.338;2023-03-14T05:01:26;97498.41;;;7.73;70.90
66762;BME280;53672;48.176;16.338;2023-03-14T05:06:27;97474.06;;;8.28;68.61
66762;BME280;53672;48.176;16.338;2023-03-14T05:11:27;97464.56;;;8.44;67.92
66762;BME280;53672;48.176;16.338;2023-03-14T05:16:29;97485.16;;;8.57;67.39
66762;BME280;53672;48.176;16.338;2023-03-14T05:21:30;97494.66;;;8.63;67.14
66762;BME280;53672;48.176;16.338;2023-03-14T05:26:30;97515.84;;;8.64;66.96
66762;BME280;53672;48.176;16.338;2023-03-14T05:31:32;97519.34;;;8.65;67.18
66762;BME280;53672;48.176;16.338;2023-03-14T05:36:33;97531.88;;;8.78;66.42
66762;BME280;53672;48.176;16.338;2023-03-14T05:41:33;97533.22;;;8.89;66.15
66762;BME280;53672;48.176;16.338;2023-03-14T05:46:35;97550.75;;;8.87;65.58
66762;BME280;53672;48.176;16.338;2023-03-14T05:51:36;97553.81;;;8.49;65.65
66762;BME280;53672;48.176;16.338;2023-03-14T05:56:36;97571.59;;;8.23;66.12
66762;BME280;53672;48.176;16.338;2023-03-14T06:01:38;97575.28;;;8.13;66.34
66762;BME280;53672;48.176;16.338;2023-03-14T06:06:38;97587.91;;;8.13;66.31
66762;BME280;53672;48.176;16.338;2023-03-14T06:11:39;97570.34;;;8.07;66.38
66762;BME280;53672;48.176;16.338;2023-03-14T06:16:41;97572.31;;;8.01;67.09
66762;BME280;53672;48.176;16.338;2023-03-14T06:21:41;97578.66;;;8.19;66.11
66762;BME280;53672;48.176;16.338;2023-03-14T06:26:42;97572.84;;;8.26;65.92
66762;BME280;53672;48.176;16.338;2023-03-14T06:31:44;97578.22;;;8.26;65.89
66762;BME280;53672;48.176;16.338;2023-03-14T06:36:45;97575.47;;;8.31;65.71
66762;BME280;53672;48.176;16.338;2023-03-14T06:41:45;97575.94;;;8.33;66.09
66762;BME280;53672;48.176;16.338;2023-03-14T06:46:47;97537.47;;;8.59;65.32
66762;BME280;53672;48.176;16.338;2023-03-14T06:51:48;97550.44;;;9.19;63.42
66762;BME280;53672;48.176;16.338;2023-03-14T06:56:48;97565.63;;;9.24;62.79
66762;BME280;53672;48.176;16.338;2023-03-14T07:01:50;97566.56;;;9.19;63.24
66762;BME280;53672;48.176;16.338;2023-03-14T07:06:51;97561.81;;;9.16;63.40
66762;BME280;53672;48.176;16.338;2023-03-14T07:11:51;97572.16;;;9.79;61.25
66762;BME280;53672;48.176;16.338;2023-03-14T07:16:53;97587.91;;;9.63;62.11
66762;BME280;53672;48.176;16.338;2023-03-14T07:21:54;97593.28;;;9.55;62.61
66762;BME280;53672;48.176;16.338;2023-03-14T07:26:54;97594.66;;;9.44;62.82
66762;BME280;53672;48.176;16.338;2023-03-14T07:31:56;97603.41;;;9.58;62.85
66762;BME280;53672;48.176;16.338;2023-03-14T07:36:56;97591.22;;;9.52;64.28
66762;BME280;53672;48.176;16.338;2023-03-14T07:41:57;97590.41;;;10.08;64.07
66762;BME280;53672;48.176;16.338;2023-03-14T07:46:59;97582.09;;;10.44;64.46
66762;BME280;53672;48.176;16.338;2023-03-14T07:51:59;97584.13;;;10.81;63.15
66762;BME280;53672;48.176;16.338;2023-03-14T07:57:00;97581.94;;;11.30;62.62
66762;BME280;53672;48.176;16.338;2023-03-14T08:02:02;97583.00;;;11.37;62.95
66762;BME280;53672;48.176;16.338;2023-03-14T08:07:02;97583.84;;;11.67;62.34
66762;BME280;53672;48.176;16.338;2023-03-14T08:12:03;97569.22;;;11.77;62.57
66762;BME280;53672;48.176;16.338;2023-03-14T08:17:05;97571.13;;;12.05;62.13
66762;BME280;53672;48.176;16.338;2023-03-14T08:22:06;97569.59;;;12.16;62.17
66762;BME280;53672;48.176;16.338;2023-03-14T08:27:06;97560.16;;;12.43;61.66
66762;BME280;53672;48.176;16.338;2023-03-14T08:32:08;97578.44;;;12.67;60.43
66762;BME280;53672;48.176;16.338;2023-03-14T08:37:09;97572.03;;;12.51;60.80
66762;BME280;53672;48.176;16.338;2023-03-14T08:42:09;97571.63;;;12.61;59.72
66762;BME280;53672;48.176;16.338;2023-03-14T08:47:11;97561.22;;;12.51;59.83
66762;BME280;53672;48.176;16.338;2023-03-14T08:52:11;97552.78;;;12.52;59.72
66762;BME280;53672;48.176;16.338;2023-03-14T08:57:12;97550.06;;;12.73;59.24
66762;BME280;53672;48.176;16.338;2023-03-14T09:02:14;97553.00;;;12.80;58.94
66762;BME280;53672;48.176;16.338;2023-03-14T09:07:14;97546.97;;;12.62;59.18
66762;BME280;53672;48.176;16.338;2023-03-14T09:12:15;97546.72;;;12.55;59.00
66762;BME280;53672;48.176;16.338;2023-03-14T09:17:17;97555.69;;;12.47;58.87
66762;BME280;53672;48.176;16.338;2023-03-14T09:22:17;97559.41;;;12.43;59.25
66762;BME280;53672;48.176;16.338;2023-03-14T09:27:18;97563.88;;;12.39;59.50
66762;BME280;53672;48.176;16.338;2023-03-14T09:32:20;97560.69;;;12.37;59.09
66762;BME280;53672;48.176;16.338;2023-03-14T09:37:20;97570.84;;;12.40;58.89
66762;BME280;53672;48.176;16.338;2023-03-14T09:42:23;97559.59;;;12.17;59.90
66762;BME280;53672;48.176;16.338;2023-03-14T09:47:27;97555.69;;;12.27;59.55
66762;BME280;53672;48.176;16.338;2023-03-14T09:52:31;97561.56;;;12.29;59.21
66762;BME280;53672;48.176;16.338;2023-03-14T09:57:34;97560.66;;;12.25;59.45
66762;BME280;53672;48.176;16.338;2023-03-14T10:02:37;97571.09;;;12.26;59.70
66762;BME280;53672;48.176;16.338;2023-03-14T10:07:37;97554.97;;;12.17;60.02
66762;BME280;53672;48.176;16.338;2023-03-14T10:12:38;97571.38;;;12.33;59.83
66762;BME280;53672;48.176;16.338;2023-03-14T10:17:43;97554.03;;;12.55;59.02
66762;BME280;53672;48.176;16.338;2023-03-14T10:22:43;97572.50;;;12.86;57.99
66762;BME280;53672;48.176;16.338;2023-03-14T10:27:44;97571.66;;;13.06;57.99
66762;BME280;53672;48.176;16.338;2023-03-14T10:32:46;97571.88;;;13.22;57.38
66762;BME280;53672;48.176;16.338;2023-03-14T10:37:55;97572.56;;;13.31;57.19
66762;BME280;53672;48.176;16.338;2023-03-14T10:42:58;97564.22;;;13.48;56.31
66762;BME280;53672;48.176;16.338;2023-03-14T10:48:13;97570.44;;;13.60;57.77
66762;BME280;53672;48.176;16.338;2023-03-14T10:53:17;97572.44;;;13.39;57.63
66762;BME280;53672;48.176;16.338;2023-03-14T10:58:23;97564.19;;;13.24;56.92
66762;BME280;53672;48.176;16.338;2023-03-14T11:03:26;97555.97;;;13.20;55.71
66762;BME280;53672;48.176;16.338;2023-03-14T11:08:31;97568.00;;;13.10;55.39
66762;BME280;53672;48.176;16.338;2023-03-14T11:13:39;97568.59;;;12.95;54.78
66762;BME280;53672;48.176;16.338;2023-03-14T11:19:11;97561.38;;;12.87;54.90
66762;BME280;53672;48.176;16.338;2023-03-14T11:24:27;97565.19;;;12.86;54.12
66762;BME280;53672;48.176;16.338;2023-03-14T11:29:37;97571.59;;;12.82;53.75
66762;BME280;53672;48.176;16.338;2023-03-14T11:34:44;97568.75;;;12.78;53.84
66762;BME280;53672;48.176;16.338;2023-03-14T11:39:57;97564.50;;;12.77;53.57
66762;BME280;53672;48.176;16.338;2023-03-14T11:45:00;97587.41;;;12.59;53.45
66762;BME280;53672;48.176;16.338;2023-03-14T11:50:08;97584.84;;;12.42;54.36
66762;BME280;53672;48.176;16.338;2023-03-14T11:55:17;97591.59;;;12.27;55.54
66762;BME280;53672;48.176;16.338;2023-03-14T12:00:20;97579.41;;;12.21;55.86
66762;BME280;53672;48.176;16.338;2023-03-14T12:05:37;97565.56;;;12.23;55.91
66762;BME280;53672;48.176;16.338;2023-03-14T12:10:41;97563.06;;;12.17;56.31
66762;BME280;53672;48.176;16.338;2023-03-14T12:15:49;97576.09;;;11.95;56.70
66762;BME280;53672;48.176;16.338;2023-03-14T12:20:53;97574.09;;;11.83;57.70
66762;BME280;53672;48.176;16.338;2023-03-14T12:26:16;97570.66;;;11.74;57.90
66762;BME280;53672;48.176;16.338;2023-03-14T12:31:36;97564.31;;;11.70;58.39
66762;BME280;53672;48.176;16.338;2023-03-14T12:36:54;97575.09;;;11.70;58.57
66762;BME280;53672;48.176;16.338;2023-03-14T12:42:02;97576.25;;;11.60;58.81
66762;BME280;53672;48.176;16.338;2023-03-14T12:53:07;97560.84;;;11.61;58.38
66762;BME280;53672;48.176;16.338;2023-03-14T12:58:15;97552.25;;;11.67;58.06
66762;BME280;53672;48.176;16.338;2023-03-14T13:03:20;97551.19;;;11.60;58.32
66762;BME280;53672;48.176;16.338;2023-03-14T13:08:38;97545.28;;;11.58;58.02
66762;BME280;53672;48.176;16.338;2023-03-14T13:13:45;97546.00;;;11.46;58.03
66762;BME280;53672;48.176;16.338;2023-03-14T13:18:47;97542.09;;;11.35;58.85
66762;BME280;53672;48.176;16.338;2023-03-14T13:23:57;97548.91;;;11.33;58.96
66762;BME280;53672;48.176;16.338;2023-03-14T13:28:58;97540.53;;;11.26;59.15
66762;BME280;53672;48.176;16.338;2023-03-14T13:34:00;97555.94;;;11.16;59.44
66762;BME280;53672;48.176;16.338;2023-03-14T13:39:02;97556.59;;;11.13;59.77
66762;BME280;53672;48.176;16.338;2023-03-14T13:44:07;97568.00;;;11.19;59.88
66762;BME280;53672;48.176;16.338;2023-03-14T13:49:11;97566.91;;;11.11;60.20
66762;BME280;53672;48.176;16.338;2023-03-14T13:54:15;97563.13;;;11.12;59.94
66762;BME280;53672;48.176;16.338;2023-03-14T13:59:23;97568.53;;;11.04;60.59
66762;BME280;53672;48.176;16.338;2023-03-14T14:04:25;97565.38;;;11.02;61.40
66762;BME280;53672;48.176;16.338;2023-03-14T14:09:28;97579.31;;;11.04;61.55
66762;BME280;53672;48.176;16.338;2023-03-14T14:14:32;97575.66;;;11.00;62.52
66762;BME280;53672;48.176;16.338;2023-03-14T14:19:35;97573.16;;;10.95;63.24
66762;BME280;53672;48.176;16.338;2023-03-14T14:24:38;97563.16;;;10.95;61.95
66762;BME280;53672;48.176;16.338;2023-03-14T14:29:40;97565.50;;;11.05;61.04
66762;BME280;53672;48.176;16.338;2023-03-14T14:34:41;97559.78;;;11.15;60.53
66762;BME280;53672;48.176;16.338;2023-03-14T14:39:44;97572.91;;;11.26;59.29
66762;BME280;53672;48.176;16.338;2023-03-14T14:44:44;97572.06;;;11.34;58.72
66762;BME280;53672;48.176;16.338;2023-03-14T14:49:47;97565.41;;;11.31;58.99
66762;BME280;53672;48.176;16.338;2023-03-14T14:54:52;97566.19;;;11.40;58.34
66762;BME280;53672;48.176;16.338;2023-03-14T14:59:55;97569.78;;;11.53;57.56
66762;BME280;53672;48.176;16.338;2023-03-14T15:04:56;97571.03;;;11.55;57.40
66762;BME280;53672;48.176;16.338;2023-03-14T15:09:58;97579.09;;;11.64;56.70
66762;BME280;53672;48.176;16.338;2023-03-14T15:14:58;97570.06;;;11.60;57.74
66762;BME280;53672;48.176;16.338;2023-03-14T15:19:59;97570.06;;;11.60;58.70
66762;BME280;53672;48.176;16.338;2023-03-14T15:25:01;97558.03;;;11.19;61.76
66762;BME280;53672;48.176;16.338;2023-03-14T15:30:02;97543.66;;;10.98;65.83
66762;BME280;53672;48.176;16.338;2023-03-14T15:35:03;97533.41;;;10.75;66.28
66762;BME280;53672;48.176;16.338;2023-03-14T15:40:06;97522.97;;;10.39;68.94
66762;BME280;53672;48.176;16.338;2023-03-14T15:45:07;97515.84;;;10.26;69.37
66762;BME280;53672;48.176;16.338;2023-03-14T15:50:09;97524.09;;;10.29;70.21
66762;BME280;53672;48.176;16.338;2023-03-14T15:55:11;97542.94;;;10.29;69.52
66762;BME280;53672;48.176;16.338;2023-03-14T16:00:12;97549.44;;;10.37;69.38
66762;BME280;53672;48.176;16.338;2023-03-14T16:05:14;97554.03;;;10.28;70.41
66762;BME280;53672;48.176;16.338;2023-03-14T16:10:16;97549.59;;;10.23;70.78
66762;BME280;53672;48.176;16.338;2023-03-14T16:15:17;97557.84;;;10.27;71.19
66762;BME280;53672;48.176;16.338;2023-03-14T16:20:17;97561.31;;;10.18;71.32
66762;BME280;53672;48.176;16.338;2023-03-14T16:25:19;97561.16;;;10.24;71.32
66762;BME280;53672;48.176;16.338;2023-03-14T16:30:20;97556.66;;;10.10;71.91
66762;BME280;53672;48.176;16.338;2023-03-14T16:35:21;97570.47;;;10.09;72.65
66762;BME280;53672;48.176;16.338;2023-03-14T16:40:23;97575.19;;;10.03;72.45
66762;BME280;53672;48.176;16.338;2023-03-14T16:45:23;97592.94;;;10.04;72.88
66762;BME280;53672;48.176;16.338;2023-03-14T16:50:24;97594.53;;;10.05;73.42
66762;BME280;53672;48.176;16.338;2023-03-14T16:55:26;97597.81;;;9.94;74.27
66762;BME280;53672;48.176;16.338;2023-03-14T17:00:27;97597.69;;;10.07;73.86
66762;BME280;53672;48.176;16.338;2023-03-14T17:05:27;97604.94;;;9.90;75.20
66762;BME280;53672;48.176;16.338;2023-03-14T17:10:30;97603.34;;;9.89;75.62
66762;BME280;53672;48.176;16.338;2023-03-14T17:15:31;97608.38;;;9.73;76.17
66762;BME280;53672;48.176;16.338;2023-03-14T17:20:32;97619.75;;;9.70;77.02
66762;BME280;53672;48.176;16.338;2023-03-14T17:25:34;97627.03;;;9.69;76.83
66762;BME280;53672;48.176;16.338;2023-03-14T17:30:35;97630.31;;;9.58;77.65
66762;BME280;53672;48.176;16.338;2023-03-14T17:35:36;97625.06;;;9.53;77.97
66762;BME280;53672;48.176;16.338;2023-03-14T17:40:38;97635.34;;;9.51;77.34
66762;BME280;53672;48.176;16.338;2023-03-14T17:45:39;97644.22;;;9.60;77.07
66762;BME280;53672;48.176;16.338;2023-03-14T17:50:40;97649.44;;;9.56;77.43
66762;BME280;53672;48.176;16.338;2023-03-14T17:55:42;97658.00;;;9.58;77.56
66762;BME280;53672;48.176;16.338;2023-03-14T18:00:43;97670.97;;;9.56;77.54
66762;BME280;53672;48.176;16.338;2023-03-14T18:05:44;97680.91;;;9.56;77.73
66762;BME280;53672;48.176;16.338;2023-03-14T18:10:52;97695.44;;;9.46;78.03
66762;BME280;53672;48.176;16.338;2023-03-14T18:15:53;97697.91;;;9.34;78.49
66762;BME280;53672;48.176;16.338;2023-03-14T18:20:54;97703.22;;;9.26;79.35
66762;BME280;53672;48.176;16.338;2023-03-14T18:25:58;97732.16;;;9.29;79.73
66762;BME280;53672;48.176;16.338;2023-03-14T18:31:01;97733.28;;;9.28;79.00
66762;BME280;53672;48.176;16.338;2023-03-14T18:36:02;97731.88;;;9.30;78.29
66762;BME280;53672;48.176;16.338;2023-03-14T18:41:05;97748.03;;;9.61;74.25
66762;BME280;53672;48.176;16.338;2023-03-14T18:46:07;97758.94;;;9.87;70.71
66762;BME280;53672;48.176;16.338;2023-03-14T18:51:09;97764.06;;;10.28;67.97
66762;BME280;53672;48.176;16.338;2023-03-14T18:56:12;97789.88;;;10.68;67.50
66762;BME280;53672;48.176;16.338;2023-03-14T19:01:14;97783.06;;;10.79;67.47
66762;BME280;53672;48.176;16.338;2023-03-14T19:06:17;97819.81;;;10.66;67.13
66762;BME280;53672;48.176;16.338;2023-03-14T19:11:20;97808.97;;;10.49;67.19
66762;BME280;53672;48.176;16.338;2023-03-14T19:16:23;97814.63;;;10.31;67.95
66762;BME280;53672;48.176;16.338;2023-03-14T19:21:26;97823.44;;;10.23;68.24
66762;BME280;53672;48.176;16.338;2023-03-14T19:26:29;97844.63;;;10.15;68.77
66762;BME280;53672;48.176;16.338;2023-03-14T19:31:30;97845.66;;;10.06;70.01
66762;BME280;53672;48.176;16.338;2023-03-14T19:36:33;97835.34;;;10.69;72.75
66762;BME280;53672;48.176;16.338;2023-03-14T19:41:46;97849.44;;;10.58;65.56
66762;BME280;53672;48.176;16.338;2023-03-14T19:46:48;97841.66;;;10.26;66.50
66762;BME280;53672;48.176;16.338;2023-03-14T19:51:49;97837.44;;;10.11;66.05
66762;BME280;53672;48.176;16.338;2023-03-14T19:56:52;97867.50;;;10.04;65.48
66762;BME280;53672;48.176;16.338;2023-03-14T20:01:53;97865.56;;;9.96;65.13
66762;BME280;53672;48.176;16.338;2023-03-14T20:06:55;97894.19;;;9.92;64.48
66762;BME280;53672;48.176;16.338;2023-03-14T20:11:57;97885.13;;;9.88;63.93
66762;BME280;53672;48.176;16.338;2023-03-14T20:16:59;97885.84;;;9.80;63.17
66762;BME280;53672;48.176;16.338;2023-03-14T20:22:01;97887.88;;;9.75;63.00
66762;BME280;53672;48.176;16.338;2023-03-14T20:27:04;97899.84;;;9.68;63.08
66762;BME280;53672;48.176;16.338;2023-03-14T20:32:05;97920.69;;;9.63;63.31
66762;BME280;53672;48.176;16.338;2023-03-14T20:37:07;97919.34;;;9.52;63.56
66762;BME280;53672;48.176;16.338;2023-03-14T20:42:09;97906.88;;;9.42;63.03
66762;BME280;53672;48.176;16.338;2023-03-14T20:47:12;97903.81;;;9.35;61.89
66762;BME280;53672;48.176;16.338;2023-03-14T20:52:13;97924.44;;;9.26;62.45
66762;BME280;53672;48.176;16.338;2023-03-14T20:57:16;97917.09;;;9.18;61.46
66762;BME280;53672;48.176;16.338;2023-03-14T21:02:17;97916.41;;;9.12;57.80
66762;BME280;53672;48.176;16.338;2023-03-14T21:07:18;97939.59;;;9.08;56.16
66762;BME280;53672;48.176;16.338;2023-03-14T21:12:21;97950.94;;;9.05;55.69
66762;BME280;53672;48.176;16.338;2023-03-14T21:17:22;97975.34;;;8.95;55.30
66762;BME280;53672;48.176;16.338;2023-03-14T21:22:24;97974.94;;;8.88;54.15
66762;BME280;53672;48.176;16.338;2023-03-14T21:27:27;97995.13;;;8.86;53.46
66762;BME280;53672;48.176;16.338;2023-03-14T21:32:28;97970.22;;;8.80;52.69
66762;BME280;53672;48.176;16.338;2023-03-14T21:37:29;97988.56;;;8.78;52.59
66762;BME280;53672;48.176;16.338;2023-03-14T21:42:31;97998.28;;;8.74;53.12
66762;BME280;53672;48.176;16.338;2023-03-14T21:47:32;98003.19;;;8.72;52.68
66762;BME280;53672;48.176;16.338;2023-03-14T21:52:33;97999.28;;;8.64;52.50
66762;BME280;53672;48.176;16.338;2023-03-14T21:57:35;98012.22;;;8.62;52.18
66762;BME280;53672;48.176;16.338;2023-03-14T22:02:36;98007.00;;;8.52;51.99
66762;BME280;53672;48.176;16.338;2023-03-14T22:07:36;98019.03;;;8.55;51.16
66762;BME280;53672;48.176;16.338;2023-03-14T22:12:38;98027.75;;;8.47;50.43
66762;BME280;53672;48.176;16.338;2023-03-14T22:17:39;98031.34;;;8.42;50.08
66762;BME280;53672;48.176;16.338;2023-03-14T22:22:40;98037.50;;;8.43;49.85
66762;BME280;53672;48.176;16.338;2023-03-14T22:27:41;98038.75;;;8.32;50.11
66762;BME280;53672;48.176;16.338;2023-03-14T22:32:42;98042.53;;;8.31;50.00
66762;BME280;53672;48.176;16.338;2023-03-14T22:37:43;98044.13;;;8.32;49.80
66762;BME280;53672;48.176;16.338;2023-03-14T22:42:45;98036.69;;;8.24;50.29
66762;BME280;53672;48.176;16.338;2023-03-14T22:47:45;98031.59;;;8.22;50.14
66762;BME280;53672;48.176;16.338;2023-03-14T22:52:46;98065.19;;;8.20;50.72
66762;BME280;53672;48.176;16.338;2023-03-14T22:57:51;98064.72;;;8.18;52.14
66762;BME280;53672;48.176;16.338;2023-03-14T23:02:52;98074.25;;;8.61;51.23
66762;BME280;53672;48.176;16.338;2023-03-14T23:07:53;98075.16;;;8.38;52.51
66762;BME280;53672;48.176;16.338;2023-03-14T23:12:54;98071.88;;;8.22;54.11
66762;BME280;53672;48.176;16.338;2023-03-14T23:17:55;98077.97;;;8.09;55.29
66762;BME280;53672;48.176;16.338;2023-03-14T23:22:55;98096.31;;;8.02;55.78
66762;BME280;53672;48.176;16.338;2023-03-14T23:27:57;98099.94;;;7.92;56.61
66762;BME280;53672;48.176;16.338;2023-03-14T23:32:58;98110.38;;;7.94;57.56
66762;BME280;53672;48.176;16.338;2023-03-14T23:37:58;98108.34;;;7.86;58.17
66762;BME280;53672;48.176;16.338;2023-03-14T23:43:00;98138.69;;;7.81;58.42
66762;BME280;53672;48.176;16.338;2023-03-14T23:48:01;98142.28;;;7.72;58.74
66762;BME280;53672;48.176;16.338;2023-03-14T23:53:01;98157.00;;;7.74;58.17
66762;BME280;53672;48.176;16.338;2023-03-14T23:58:03;98169.34;;;7.75;58.04
